Time;durP1;ratioP1;P1;durP2;ratioP2;P2;SDS_P1;SDS_P2;PMS_P1;PMS_P2;Temp;Humidity;BMP_temperature;BMP_pressure;BME280_temperature;BME280_humidity;BME280_pressure;Samples;Min_cycle;Max_cycle;Signal;HPM_P1;HPM_P2
2023/10/16 00:01:06;;;;;;;13.38;3.17;;;8.80;99.90;;;;;;5103871;28;20023;-69
2023/10/16 00:03:32;;;;;;;10.45;2.78;;;8.80;99.90;;;;;;5103750;28;20028;-68
2023/10/16 00:05:58;;;;;;;11.63;2.65;;;8.90;99.90;;;;;;5102741;28;20044;-67
2023/10/16 00:08:24;;;;;;;14.18;2.72;;;8.80;99.90;;;;;;5103134;28;20026;-68
2023/10/16 00:10:55;;;;;;;11.55;2.30;;;8.80;99.90;;;;;;5103842;28;20040;-66
2023/10/16 00:13:26;;;;;;;10.25;2.42;;;8.70;99.90;;;;;;5102477;28;20039;-68
2023/10/16 00:15:54;;;;;;;8.27;2.22;;;8.60;99.90;;;;;;5102232;28;20031;-67
2023/10/16 00:18:23;;;;;;;10.02;2.60;;;8.60;99.90;;;;;;5103696;28;20031;-66
2023/10/16 00:20:52;;;;;;;7.63;2.10;;;8.60;99.90;;;;;;5103874;28;20733;-67
2023/10/16 00:23:18;;;;;;;9.07;2.80;;;8.60;99.90;;;;;;5101498;28;20044;-67
2023/10/16 00:25:44;;;;;;;6.07;2.25;;;8.60;99.90;;;;;;5102921;28;20054;-66
2023/10/16 00:28:11;;;;;;;9.80;2.78;;;8.60;99.90;;;;;;5101238;28;20131;-67
2023/10/16 00:30:38;;;;;;;13.05;2.33;;;8.60;99.90;;;;;;5099491;28;20016;-67
2023/10/16 00:33:10;;;;;;;8.60;2.45;;;8.70;99.90;;;;;;5102826;28;20045;-66
2023/10/16 00:35:37;;;;;;;7.05;2.47;;;8.70;99.90;;;;;;5100234;28;20081;-67
2023/10/16 00:38:04;;;;;;;8.77;1.90;;;8.70;99.90;;;;;;5103059;28;20023;-67
2023/10/16 00:40:33;;;;;;;8.73;1.95;;;8.70;99.90;;;;;;5102148;28;20058;-67
2023/10/16 00:43:28;;;;;;;3.95;2.10;;;8.60;99.90;;;;;;5100686;28;20020;-67
2023/10/16 00:46:10;;;;;;;7.85;1.90;;;8.70;99.90;;;;;;5103325;28;20039;-67
2023/10/16 00:48:38;;;;;;;8.45;2.55;;;8.70;99.90;;;;;;5099106;28;20502;-67
2023/10/16 00:51:13;;;;;;;7.45;1.70;;;8.70;99.90;;;;;;5102717;28;20020;-66
2023/10/16 00:53:40;;;;;;;5.47;1.80;;;8.70;99.90;;;;;;5103029;28;20082;-66
2023/10/16 00:56:08;;;;;;;8.15;2.00;;;8.70;99.90;;;;;;5103241;28;20384;-67
2023/10/16 00:58:37;;;;;;;6.95;1.80;;;8.70;99.90;;;;;;5101797;28;20050;-67
2023/10/16 01:01:08;;;;;;;7.15;1.55;;;8.70;99.90;;;;;;5103050;28;20466;-67
2023/10/16 01:03:36;;;;;;;8.17;2.30;;;8.70;99.90;;;;;;5112755;28;20042;-66
2023/10/16 01:06:03;;;;;;;7.53;1.75;;;8.60;99.90;;;;;;5112625;28;20027;-67
2023/10/16 01:08:28;;;;;;;7.50;1.80;;;8.70;99.90;;;;;;5115359;28;20096;-66
2023/10/16 01:10:57;;;;;;;9.65;2.55;;;8.70;99.90;;;;;;5116145;28;20028;-67
2023/10/16 01:13:28;;;;;;;6.32;1.98;;;8.60;99.90;;;;;;5115876;28;20051;-67
2023/10/16 01:15:56;;;;;;;6.53;2.00;;;8.70;99.90;;;;;;5116438;28;20019;-66
2023/10/16 01:18:23;;;;;;;14.07;5.68;;;8.70;99.90;;;;;;5116344;28;20463;-66
2023/10/16 01:20:50;;;;;;;8.30;1.85;;;8.80;99.90;;;;;;5116180;28;20026;-67
2023/10/16 01:23:22;;;;;;;9.52;3.03;;;8.80;99.90;;;;;;5116373;28;20076;-67
2023/10/16 01:25:48;;;;;;;5.57;1.70;;;8.90;99.90;;;;;;5116023;28;20106;-67
2023/10/16 01:28:18;;;;;;;5.82;2.03;;;8.90;99.90;;;;;;5112702;28;20055;-66
2023/10/16 01:30:45;;;;;;;6.07;2.00;;;9.00;99.90;;;;;;5095672;28;20020;-66
2023/10/16 01:33:12;;;;;;;7.57;2.05;;;9.00;99.90;;;;;;5095476;28;20028;-66
2023/10/16 01:35:38;;;;;;;7.53;2.10;;;9.10;99.90;;;;;;5095548;28;20028;-67
2023/10/16 01:38:15;;;;;;;11.10;2.80;;;9.10;99.90;;;;;;5095527;28;20123;-66
2023/10/16 01:41:04;;;;;;;6.88;2.10;;;9.00;99.90;;;;;;5095389;28;20531;-66
2023/10/16 01:43:37;;;;;;;8.57;2.65;;;9.00;99.90;;;;;;5094162;28;20444;-66
2023/10/16 01:46:12;;;;;;;8.30;2.80;;;9.00;99.90;;;;;;5095109;28;20085;-66
2023/10/16 01:48:44;;;;;;;6.40;2.00;;;8.90;99.90;;;;;;5096189;28;20040;-67
2023/10/16 01:51:11;;;;;;;9.18;2.22;;;8.90;99.90;;;;;;5094684;28;20103;-66
2023/10/16 01:53:39;;;;;;;11.77;2.25;;;8.80;99.90;;;;;;5095121;28;20034;-66
2023/10/16 01:56:15;;;;;;;6.25;2.03;;;8.70;99.90;;;;;;5095076;28;20464;-67
2023/10/16 01:58:44;;;;;;;6.72;1.90;;;8.70;99.90;;;;;;5095330;28;20425;-66
2023/10/16 02:01:11;;;;;;;6.00;2.00;;;8.80;99.90;;;;;;5094419;28;20384;-66
2023/10/16 02:03:37;;;;;;;5.68;1.90;;;8.80;99.90;;;;;;5095072;28;20500;-66
2023/10/16 02:06:04;;;;;;;10.38;2.10;;;8.70;99.90;;;;;;5094984;28;20028;-66
2023/10/16 02:08:30;;;;;;;6.85;1.80;;;8.80;99.90;;;;;;5094990;28;20022;-67
2023/10/16 02:10:56;;;;;;;5.57;1.73;;;8.80;99.90;;;;;;5094777;28;20128;-66
2023/10/16 02:13:21;;;;;;;9.60;2.13;;;8.80;99.90;;;;;;5094755;28;20036;-67
2023/10/16 02:15:47;;;;;;;7.70;2.30;;;8.90;99.90;;;;;;5094464;28;20031;-68
2023/10/16 02:19:00;;;;;;;9.52;2.53;;;8.90;99.90;;;;;;5094708;28;20028;-67
2023/10/16 02:20:59;;;;;;;9.00;3.00;;;8.90;99.90;;;;;;5090058;28;20086;-68
2023/10/16 02:23:29;;;;;;;10.88;2.88;;;9.00;99.90;;;;;;5094440;28;20024;-67
2023/10/16 02:25:56;;;;;;;8.48;2.60;;;9.00;99.90;;;;;;5094727;28;20024;-67
2023/10/16 02:28:22;;;;;;;8.77;2.55;;;9.00;99.90;;;;;;5094263;28;20023;-69
2023/10/16 02:30:49;;;;;;;8.20;2.65;;;9.00;99.90;;;;;;5094170;28;20028;-68
2023/10/16 02:33:22;;;;;;;11.52;2.75;;;8.90;99.90;;;;;;5093999;28;20411;-68
2023/10/16 02:35:48;;;;;;;11.38;2.70;;;8.80;99.90;;;;;;5094434;28;20028;-69
2023/10/16 02:38:23;;;;;;;10.75;2.72;;;8.80;99.90;;;;;;5094156;28;20024;-68
2023/10/16 02:40:50;;;;;;;11.10;3.00;;;8.80;99.90;;;;;;5094240;28;20028;-68
2023/10/16 02:43:20;;;;;;;9.73;2.30;;;8.80;99.90;;;;;;5094217;28;20032;-68
2023/10/16 02:45:47;;;;;;;8.90;2.45;;;8.80;99.90;;;;;;5094200;28;20042;-68
2023/10/16 02:48:18;;;;;;;6.57;2.00;;;8.80;99.90;;;;;;5093901;28;20031;-69
2023/10/16 02:50:50;;;;;;;9.17;2.77;;;8.90;99.90;;;;;;5094127;28;20024;-66
2023/10/16 02:53:17;;;;;;;9.02;2.38;;;8.90;99.90;;;;;;5094028;28;20397;-68
2023/10/16 02:55:46;;;;;;;8.65;2.47;;;8.90;99.90;;;;;;5094036;28;20120;-68
2023/10/16 02:58:11;;;;;;;7.20;2.33;;;9.00;99.90;;;;;;5093861;28;20036;-67
2023/10/16 03:00:44;;;;;;;9.30;2.38;;;9.00;99.90;;;;;;5093704;28;20533;-67
2023/10/16 03:03:14;;;;;;;8.15;2.30;;;9.00;99.90;;;;;;5094009;28;20028;-68
2023/10/16 03:05:40;;;;;;;8.82;2.40;;;9.10;99.90;;;;;;5093838;28;20028;-69
2023/10/16 03:08:08;;;;;;;8.23;2.00;;;9.10;99.90;;;;;;5093363;28;20035;-67
2023/10/16 03:10:36;;;;;;;4.97;1.92;;;9.00;99.90;;;;;;5093691;28;20028;-68
2023/10/16 03:13:05;;;;;;;10.13;2.53;;;9.00;99.90;;;;;;5093793;28;20495;-67
2023/10/16 03:15:34;;;;;;;10.88;2.47;;;9.00;99.90;;;;;;5093612;28;20032;-67
2023/10/16 03:18:00;;;;;;;6.47;1.73;;;9.00;99.90;;;;;;5093670;28;20043;-66
2023/10/16 03:20:35;;;;;;;11.45;3.13;;;9.00;99.90;;;;;;5093383;28;20031;-67
2023/10/16 03:23:06;;;;;;;9.25;2.42;;;9.00;99.90;;;;;;5093559;28;20020;-66
2023/10/16 03:25:50;;;;;;;11.18;3.30;;;9.10;99.90;;;;;;5093491;28;20445;-67
2023/10/16 03:28:17;;;;;;;7.70;3.05;;;9.10;99.90;;;;;;5089614;28;20064;-67
2023/10/16 03:30:43;;;;;;;6.57;2.60;;;9.10;99.90;;;;;;5072336;28;20099;-66
2023/10/16 03:33:13;;;;;;;9.32;2.38;;;9.20;99.90;;;;;;5072858;28;20491;-66
2023/10/16 03:35:44;;;;;;;9.65;3.13;;;9.10;99.90;;;;;;5073108;28;20028;-67
2023/10/16 03:38:11;;;;;;;11.20;3.10;;;9.10;99.90;;;;;;5073056;28;20110;-66
2023/10/16 03:40:37;;;;;;;10.38;2.72;;;9.10;99.90;;;;;;5072961;28;20067;-67
2023/10/16 03:43:03;;;;;;;10.90;2.50;;;9.10;99.90;;;;;;5072928;28;20063;-67
2023/10/16 03:45:28;;;;;;;8.63;2.50;;;9.10;99.90;;;;;;5072920;28;20107;-66
2023/10/16 03:47:57;;;;;;;8.63;3.30;;;9.10;99.90;;;;;;5092333;28;20024;-67
2023/10/16 03:50:25;;;;;;;13.35;2.72;;;9.10;99.90;;;;;;5087779;28;20060;-67
2023/10/16 03:52:54;;;;;;;8.00;2.67;;;9.10;99.90;;;;;;5099505;27;20051;-66
2023/10/16 03:55:22;;;;;;;11.45;2.88;;;9.10;99.90;;;;;;5086583;28;20036;-68
2023/10/16 03:57:50;;;;;;;9.90;3.28;;;9.20;99.90;;;;;;5105792;28;20028;-68
2023/10/16 04:00:18;;;;;;;6.50;2.60;;;9.20;99.90;;;;;;5099041;28;20028;-69
2023/10/16 04:02:44;;;;;;;10.15;3.55;;;9.20;99.90;;;;;;5110505;28;20122;-68
2023/10/16 04:07:54;;;;;;;10.07;3.40;;;9.20;99.90;;;;;;5092815;28;20425;-69
2023/10/16 04:10:28;;;;;;;9.68;4.28;;;9.10;99.90;;;;;;5107066;28;20028;-68
2023/10/16 04:12:57;;;;;;;8.13;3.63;;;9.10;99.90;;;;;;5097093;28;20036;-67
2023/10/16 04:18:18;;;;;;;15.85;4.20;;;9.00;99.90;;;;;;5085466;28;20030;-67
2023/10/16 04:20:44;;;;;;;10.05;3.42;;;9.00;99.90;;;;;;5073038;28;20029;-67
2023/10/16 04:23:37;;;;;;;15.95;4.78;;;9.00;99.90;;;;;;5083946;28;20034;-67
2023/10/16 04:34:31;;;;;;;14.27;5.47;;;8.90;99.90;;;;;;5102119;28;20131;-66
2023/10/16 04:59:01;;;;;;;21.27;8.10;;;9.20;99.90;;;;;;5116948;27;20146;-69
2023/10/16 05:19:45;;;;;;;19.02;6.82;;;9.40;99.90;;;;;;5116567;28;20080;-67
2023/10/16 06:14:16;;;;;;;19.90;11.52;;;9.40;99.90;;;;;;5094871;28;20047;-66
2023/10/16 06:16:47;;;;;;;20.55;10.85;;;9.50;99.90;;;;;;5094952;28;20024;-67
2023/10/16 06:19:17;;;;;;;25.58;11.48;;;9.50;99.90;;;;;;5094898;28;20038;-67
2023/10/16 06:21:51;;;;;;;20.85;12.75;;;9.50;99.90;;;;;;5094768;28;20129;-68
2023/10/16 06:24:35;;;;;;;22.40;12.20;;;9.50;99.90;;;;;;5094914;28;20118;-67
2023/10/16 06:27:41;;;;;;;21.23;12.40;;;9.60;99.90;;;;;;5094592;28;20033;-67
2023/10/16 06:29:57;;;;;;;19.67;11.90;;;9.60;99.90;;;;;;5091626;28;20124;-66
2023/10/16 06:32:35;;;;;;;22.13;12.18;;;9.60;99.90;;;;;;5094071;28;20055;-66
2023/10/16 06:35:01;;;;;;;157.35;25.50;;;9.60;99.90;;;;;;5094066;28;20075;-67
2023/10/16 06:37:35;;;;;;;22.40;12.38;;;9.60;99.90;;;;;;5094243;28;20051;-67
2023/10/16 06:40:04;;;;;;;20.15;12.32;;;9.60;99.90;;;;;;5092812;28;20020;-65
2023/10/16 06:42:30;;;;;;;25.45;12.10;;;9.60;99.90;;;;;;5081152;28;20471;-67
2023/10/16 06:45:03;;;;;;;19.52;11.80;;;9.60;99.90;;;;;;5093027;28;20073;-66
2023/10/16 06:47:35;;;;;;;20.48;11.57;;;9.60;99.90;;;;;;5093429;28;20105;-67
2023/10/16 06:50:34;;;;;;;21.23;12.32;;;9.60;99.90;;;;;;5094061;28;20107;-67
2023/10/16 06:53:00;;;;;;;21.15;12.10;;;9.60;99.90;;;;;;5093675;28;20079;-66
2023/10/16 06:55:26;;;;;;;;;;;9.60;99.90;;;;;;5094740;28;20073;-67
2023/10/16 06:57:51;;;;;;;19.85;10.93;;;9.70;99.90;;;;;;5093511;28;19908;-66
2023/10/16 07:00:27;;;;;;;18.90;10.02;;;9.80;99.90;;;;;;5093576;28;20065;-66
2023/10/16 07:02:54;;;;;;;16.48;8.75;;;9.80;99.90;;;;;;5093729;28;20521;-67
2023/10/16 07:05:24;;;;;;;17.05;9.10;;;9.90;99.90;;;;;;5092476;28;20380;-67
2023/10/16 07:07:52;;;;;;;17.17;8.43;;;9.90;99.90;;;;;;5073594;28;20123;-68
2023/10/16 07:10:18;;;;;;;15.73;8.90;;;10.00;99.90;;;;;;5073423;28;20117;-66
2023/10/16 07:12:58;;;;;;;17.52;9.05;;;10.10;99.90;;;;;;5076124;28;20036;-66
2023/10/16 07:15:30;;;;;;;16.98;8.82;;;10.20;99.90;;;;;;5093623;28;20533;-66
2023/10/16 07:17:56;;;;;;;;;;;10.30;99.90;;;;;;5093012;28;20024;-66
2023/10/16 07:20:30;;;;;;;14.80;8.00;;;10.40;99.90;;;;;;5091983;28;19911;-66
2023/10/16 07:22:56;;;;;;;12.38;6.95;;;10.50;99.90;;;;;;5091851;28;20035;-66
2023/10/16 07:25:25;;;;;;;12.20;7.40;;;10.50;99.90;;;;;;5092784;28;20023;-67
2023/10/16 07:27:57;;;;;;;16.38;7.07;;;10.60;99.90;;;;;;5092824;28;20024;-66
2023/10/16 07:30:25;;;;;;;13.20;6.50;;;10.60;99.90;;;;;;5092577;28;20089;-65
2023/10/16 07:32:51;;;;;;;14.45;6.82;;;10.60;99.90;;;;;;5092744;28;20452;-66
2023/10/16 07:35:21;;;;;;;13.25;6.53;;;10.70;99.90;;;;;;5092701;28;20451;-67
2023/10/16 07:37:53;;;;;;;12.55;6.70;;;10.70;99.90;;;;;;5093358;28;20031;-68
2023/10/16 07:40:20;;;;;;;;;;;10.70;99.90;;;;;;5093998;28;20036;-67
2023/10/16 07:42:49;;;;;;;11.27;5.60;;;10.70;99.90;;;;;;5093228;28;19904;-69
2023/10/16 07:45:15;;;;;;;11.52;6.05;;;10.70;99.90;;;;;;5093210;28;20531;-68
2023/10/16 07:47:41;;;;;;;12.45;5.72;;;10.70;99.90;;;;;;5093131;28;20108;-68
2023/10/16 07:50:07;;;;;;;10.73;5.10;;;10.80;99.90;;;;;;5092744;28;20026;-68
2023/10/16 07:52:34;;;;;;;8.18;4.22;;;10.90;99.90;;;;;;5092583;28;20262;-67
2023/10/16 07:55:02;;;;;;;10.13;4.60;;;11.00;99.90;;;;;;5092689;28;20046;-66
2023/10/16 07:57:28;;;;;;;11.07;4.13;;;11.10;99.90;;;;;;5092975;28;20056;-67
2023/10/16 07:59:54;;;;;;;11.05;4.00;;;11.10;99.90;;;;;;5092689;28;20067;-65
2023/10/16 08:02:20;;;;;;;13.65;4.07;;;11.20;99.90;;;;;;5092738;28;20028;-65
2023/10/16 08:04:51;;;;;;;8.63;3.55;;;11.20;99.90;;;;;;5092852;28;20028;-66
2023/10/16 08:07:18;;;;;;;11.57;4.20;;;11.30;99.90;;;;;;5093090;28;20024;-66
2023/10/16 08:12:18;;;;;;;14.18;3.38;;;11.60;99.90;;;;;;5092352;28;20047;-66
2023/10/16 08:14:51;;;;;;;12.30;3.50;;;11.70;99.90;;;;;;5091969;28;20136;-66
2023/10/16 08:17:23;;;;;;;5.72;2.83;;;11.90;99.90;;;;;;5091883;28;20020;-66
2023/10/16 08:19:49;;;;;;;9.13;3.17;;;12.00;99.90;;;;;;5092637;28;20047;-66
2023/10/16 08:22:15;;;;;;;10.75;3.75;;;12.20;99.90;;;;;;5092542;28;20028;-66
2023/10/16 08:24:57;;;;;;;14.05;3.72;;;12.30;99.90;;;;;;5092190;28;20474;-66
2023/10/16 08:33:12;;;;;;;7.20;3.13;;;12.50;99.90;;;;;;5049903;28;20032;-66
2023/10/16 08:35:41;;;;;;;8.13;3.17;;;12.60;99.90;;;;;;5049913;28;20045;-66
2023/10/16 08:38:15;;;;;;;11.45;5.00;;;12.70;99.90;;;;;;5070652;28;20040;-64
2023/10/16 08:40:45;;;;;;;7.80;3.17;;;12.80;99.90;;;;;;5092435;28;20426;-65
2023/10/16 08:43:17;;;;;;;8.13;3.38;;;12.90;99.90;;;;;;5092340;28;20028;-64
2023/10/16 08:45:49;;;;;;;;;;;13.10;99.90;;;;;;5092700;28;20028;-65
2023/10/16 08:48:17;;;;;;;6.97;2.78;;;13.10;99.90;;;;;;5092466;28;19939;-66
2023/10/16 08:50:52;;;;;;;7.85;2.83;;;13.40;99.90;;;;;;5092504;28;20028;-65
2023/10/16 08:53:30;;;;;;;5.65;2.50;;;14.00;99.90;;;;;;5092352;28;20135;-65
2023/10/16 08:56:09;;;;;;;4.00;2.10;;;14.70;99.90;;;;;;5091827;28;20030;-65
2023/10/16 08:58:39;;;;;;;5.72;2.00;;;15.20;99.90;;;;;;5092432;28;20119;-66
2023/10/16 09:01:09;;;;;;;6.25;2.55;;;15.30;99.90;;;;;;5087924;28;20031;-65
2023/10/16 09:03:44;;;;;;;5.38;2.88;;;15.30;99.90;;;;;;5092309;28;20031;-66
2023/10/16 09:06:13;;;;;;;6.28;2.35;;;15.20;99.90;;;;;;5092140;28;20103;-65
2023/10/16 09:08:41;;;;;;;4.90;1.50;;;15.20;99.90;;;;;;5092254;28;20036;-66
2023/10/16 09:11:07;;;;;;;7.25;2.15;;;15.10;99.90;;;;;;5091783;28;20028;-65
2023/10/16 09:13:37;;;;;;;7.03;1.90;;;15.10;99.90;;;;;;5091706;28;20460;-66
2023/10/16 09:16:11;;;;;;;5.70;1.88;;;15.20;99.90;;;;;;5091854;28;20107;-66
2023/10/16 09:18:40;;;;;;;6.55;2.20;;;15.40;99.90;;;;;;5091898;28;20123;-65
2023/10/16 09:21:13;;;;;;;6.20;2.33;;;15.70;99.90;;;;;;5091963;28;20555;-65
2023/10/16 09:23:40;;;;;;;5.85;2.15;;;16.10;99.90;;;;;;5092168;28;20035;-66
2023/10/16 09:26:07;;;;;;;6.00;2.20;;;16.60;99.90;;;;;;5091940;28;20028;-65
2023/10/16 09:28:33;;;;;;;11.68;5.55;;;17.10;99.90;;;;;;5091637;28;20456;-66
2023/10/16 09:31:02;;;;;;;6.18;2.20;;;17.50;99.90;;;;;;5095280;28;20024;-65
2023/10/16 09:33:32;;;;;;;7.28;1.45;;;17.90;99.90;;;;;;5095547;28;20367;-65
2023/10/16 09:36:01;;;;;;;5.72;1.90;;;18.30;99.90;;;;;;5094468;28;20099;-66
2023/10/16 09:38:33;;;;;;;9.85;2.75;;;18.70;99.90;;;;;;5094002;28;20028;-65
2023/10/16 09:43:56;;;;;;;6.15;1.70;;;19.10;99.90;;;;;;5094017;28;20497;-65
2023/10/16 09:46:56;;;;;;;4.70;1.30;;;19.60;99.90;;;;;;5094146;28;20046;-65
2023/10/16 09:49:21;;;;;;;7.25;1.80;;;19.90;99.90;;;;;;5092364;28;20043;-66
2023/10/16 09:51:57;;;;;;;1.77;0.90;;;20.20;99.90;;;;;;5092492;28;20056;-65
2023/10/16 09:54:27;;;;;;;2.30;0.90;;;20.70;99.90;;;;;;5095180;28;20040;-65
2023/10/16 09:56:59;;;;;;;3.60;1.10;;;21.10;99.90;;;;;;5093561;28;20024;-66
2023/10/16 09:59:33;;;;;;;3.50;0.90;;;21.30;99.90;;;;;;5094903;28;20430;-65
2023/10/16 10:02:08;;;;;;;5.22;1.63;;;21.40;99.90;;;;;;5095075;28;20089;-66
2023/10/16 10:04:43;;;;;;;4.57;1.10;;;21.40;99.90;;;;;;5094893;28;20171;-66
2023/10/16 10:07:19;;;;;;;3.63;1.27;;;21.40;99.90;;;;;;5095007;28;20032;-66
2023/10/16 10:09:48;;;;;;;3.22;1.38;;;21.70;99.90;;;;;;5093965;28;20054;-65
2023/10/16 10:12:29;;;;;;;5.63;1.65;;;22.00;99.90;;;;;;5093237;28;20605;-66
2023/10/16 10:15:12;;;;;;;5.15;1.00;;;22.10;99.90;;;;;;5093215;28;20068;-65
2023/10/16 10:17:40;;;;;;;6.40;1.70;;;22.00;99.90;;;;;;5093572;28;20052;-66
2023/10/16 10:20:17;;;;;;;8.02;1.50;;;22.20;99.90;;;;;;5093762;28;20034;-66
2023/10/16 10:22:45;;;;;;;5.40;1.58;;;22.50;99.90;;;;;;5094779;28;20078;-66
2023/10/16 10:25:26;;;;;;;3.45;1.08;;;22.70;99.90;;;;;;5094852;28;20040;-65
2023/10/16 10:27:55;;;;;;;4.38;1.00;;;22.70;99.90;;;;;;5094889;28;20028;-65
2023/10/16 10:30:25;;;;;;;4.65;1.35;;;22.50;99.90;;;;;;5094726;28;20028;-65
2023/10/16 10:33:13;;;;;;;4.93;1.30;;;22.40;99.90;;;;;;5093605;28;20020;-66
2023/10/16 10:35:39;;;;;;;6.28;1.80;;;22.50;99.90;;;;;;5098862;28;20101;-65
2023/10/16 10:38:24;;;;;;;7.35;1.17;;;22.60;99.60;;;;;;5105522;28;20078;-65
2023/10/16 10:41:10;;;;;;;4.07;1.65;;;22.90;99.90;;;;;;5093970;28;20036;-65
2023/10/16 10:43:58;;;;;;;5.18;1.67;;;23.00;99.10;;;;;;5113003;28;20458;-66
2023/10/16 10:46:28;;;;;;;6.32;1.00;;;22.70;98.60;;;;;;5114295;28;20030;-65
2023/10/16 10:48:54;;;;;;;7.60;1.50;;;22.40;98.70;;;;;;5114669;28;20127;-65
2023/10/16 10:51:21;;;;;;;6.00;1.52;;;21.90;98.60;;;;;;5100939;28;20071;-66
2023/10/16 10:53:57;;;;;;;4.80;1.00;;;21.60;98.60;;;;;;5094202;28;20020;-65
2023/10/16 10:56:41;;;;;;;2.22;0.80;;;21.20;97.80;;;;;;5093884;28;20487;-65
2023/10/16 10:59:09;;;;;;;3.80;1.10;;;21.00;98.20;;;;;;5073565;28;20032;-66
2023/10/16 11:01:51;;;;;;;3.53;1.10;;;21.10;98.30;;;;;;5073545;28;20043;-66
2023/10/16 11:04:17;;;;;;;;;;;21.10;98.40;;;;;;5074034;28;20111;-66
2023/10/16 11:06:50;;;;;;;4.47;1.10;;;21.20;99.20;;;;;;5073421;28;19948;-65
2023/10/16 11:09:20;;;;;;;7.03;2.08;;;21.30;98.70;;;;;;5112588;28;20115;-66
2023/10/16 11:11:47;;;;;;;5.45;1.10;;;21.50;97.90;;;;;;5113921;28;20039;-65
2023/10/16 11:14:14;;;;;;;4.85;1.40;;;21.40;98.70;;;;;;5114078;28;20104;-66
2023/10/16 11:16:45;;;;;;;4.43;1.30;;;21.30;98.90;;;;;;5113921;28;20055;-65
2023/10/16 11:19:11;;;;;;;4.47;1.40;;;21.10;98.90;;;;;;5113940;28;20480;-65
2023/10/16 11:21:47;;;;;;;6.57;1.38;;;20.90;98.70;;;;;;5113627;28;20024;-65
2023/10/16 11:24:13;;;;;;;6.03;1.30;;;20.80;99.80;;;;;;5114292;28;20032;-66
2023/10/16 11:26:41;;;;;;;6.07;1.00;;;20.80;99.60;;;;;;5113713;27;20042;-66
2023/10/16 11:29:11;;;;;;;9.15;1.77;;;20.70;98.90;;;;;;5113817;28;20471;-66
2023/10/16 11:31:40;;;;;;;3.30;1.00;;;20.50;99.30;;;;;;5113607;28;20019;-66
2023/10/16 11:34:12;;;;;;;8.63;1.42;;;20.20;98.80;;;;;;5113369;28;20035;-66
2023/10/16 11:36:38;;;;;;;5.57;0.95;;;19.90;99.90;;;;;;5113817;28;20077;-66
2023/10/16 11:39:09;;;;;;;3.33;1.15;;;19.50;99.90;;;;;;5111871;28;20379;-66
2023/10/16 11:41:38;;;;;;;9.17;1.53;;;19.10;99.90;;;;;;5108679;28;20521;-65
2023/10/16 11:44:13;;;;;;;7.20;1.67;;;18.90;99.90;;;;;;5093019;28;20471;-66
2023/10/16 11:46:44;;;;;;;12.10;1.90;;;18.70;99.90;;;;;;5091679;28;20024;-67
2023/10/16 11:52:19;;;;;;;5.82;1.80;;;18.50;99.90;;;;;;5092602;28;20284;-66
2023/10/16 11:54:51;;;;;;;;;;;18.50;99.90;;;;;;5091215;28;20063;-66
2023/10/16 11:57:17;;;;;;;;;;;18.70;99.90;;;;;;5092390;28;19904;-67
2023/10/16 11:59:43;;;;;;;4.28;1.90;;;18.90;99.90;;;;;;5092347;28;20314;-66
2023/10/16 12:02:14;;;;;;;6.85;1.90;;;19.00;99.90;;;;;;5092937;28;20040;-66
2023/10/16 12:04:41;;;;;;;6.03;2.20;;;19.00;99.90;;;;;;5091900;28;20039;-65
2023/10/16 12:07:12;;;;;;;6.10;2.10;;;18.90;99.90;;;;;;5092489;28;20069;-66
2023/10/16 12:09:42;;;;;;;6.20;1.58;;;18.90;99.90;;;;;;5092399;28;20528;-66
2023/10/16 12:12:19;;;;;;;5.75;1.50;;;19.00;99.90;;;;;;5092910;28;20484;-66
2023/10/16 12:14:45;;;;;;;7.20;1.67;;;19.10;99.90;;;;;;5092901;28;20055;-65
2023/10/16 12:17:13;;;;;;;5.43;1.48;;;19.20;99.90;;;;;;5092555;28;20032;-66
2023/10/16 12:19:39;;;;;;;4.40;1.50;;;19.20;99.90;;;;;;5092936;28;20093;-66
2023/10/16 12:22:08;;;;;;;5.15;1.65;;;19.00;99.90;;;;;;5092588;28;20031;-66
2023/10/16 12:24:34;;;;;;;6.82;1.38;;;19.00;99.90;;;;;;5092586;28;20444;-65
2023/10/16 12:27:01;;;;;;;7.70;1.63;;;18.90;99.90;;;;;;5092788;28;20028;-67
2023/10/16 12:29:27;;;;;;;7.25;2.30;;;18.80;99.90;;;;;;5092324;28;20081;-66
2023/10/16 12:31:55;;;;;;;10.02;1.77;;;18.80;99.90;;;;;;5092505;28;20024;-67
2023/10/16 12:34:22;;;;;;;5.78;1.52;;;18.80;99.90;;;;;;5092298;28;20044;-66
2023/10/16 12:36:49;;;;;;;6.13;1.90;;;18.80;99.90;;;;;;5090865;28;20043;-66
2023/10/16 12:39:28;;;;;;;5.50;1.67;;;18.70;99.90;;;;;;5092686;28;20110;-66
2023/10/16 12:41:55;;;;;;;6.30;1.30;;;18.70;99.90;;;;;;5090756;28;20024;-67
2023/10/16 12:44:20;;;;;;;7.53;1.52;;;18.60;99.90;;;;;;5092512;28;20060;-66
2023/10/16 12:46:46;;;;;;;7.10;1.75;;;18.60;99.90;;;;;;5092575;28;20447;-66
2023/10/16 12:49:13;;;;;;;4.93;1.80;;;18.50;99.90;;;;;;5091886;28;20365;-66
2023/10/16 12:51:40;;;;;;;8.43;1.92;;;18.50;99.90;;;;;;5092155;28;20131;-66
2023/10/16 12:54:06;;;;;;;7.78;2.47;;;18.50;99.90;;;;;;5092625;28;20119;-66
2023/10/16 12:56:35;;;;;;;7.30;1.80;;;18.60;99.90;;;;;;5092385;28;20032;-66
2023/10/16 12:59:04;;;;;;;7.97;1.85;;;18.50;99.90;;;;;;5092508;28;20036;-66
2023/10/16 13:01:30;;;;;;;6.82;1.90;;;18.50;99.90;;;;;;5092184;28;20470;-66
2023/10/16 13:04:01;;;;;;;10.63;2.28;;;18.50;99.90;;;;;;5093847;28;20115;-66
2023/10/16 13:06:28;;;;;;;8.57;1.90;;;18.50;99.90;;;;;;5096117;28;20111;-66
2023/10/16 13:08:56;;;;;;;6.70;1.73;;;18.50;99.90;;;;;;5096281;28;20088;-66
2023/10/16 13:11:21;;;;;;;7.30;2.00;;;18.40;99.90;;;;;;5096263;28;20028;-66
2023/10/16 13:13:47;;;;;;;6.63;2.13;;;18.40;99.90;;;;;;5096027;28;20375;-66
2023/10/16 13:16:12;;;;;;;9.43;2.00;;;18.40;99.90;;;;;;5095757;28;20035;-66
2023/10/16 13:18:38;;;;;;;7.90;2.00;;;18.40;99.90;;;;;;5075686;28;20029;-66
2023/10/16 13:21:07;;;;;;;9.93;2.25;;;18.30;99.90;;;;;;5075617;28;20464;-67
2023/10/16 13:23:36;;;;;;;8.07;1.58;;;18.30;99.90;;;;;;5075591;28;20024;-67
2023/10/16 13:26:03;;;;;;;10.20;2.00;;;18.40;99.90;;;;;;5075405;28;20515;-65
2023/10/16 13:28:30;;;;;;;5.30;2.28;;;18.30;99.90;;;;;;5075297;28;20048;-65
2023/10/16 13:30:55;;;;;;;6.53;2.53;;;18.20;99.90;;;;;;5075273;28;20025;-66
2023/10/16 13:33:21;;;;;;;10.10;3.08;;;18.20;99.90;;;;;;5075517;28;20032;-65
2023/10/16 13:35:47;;;;;;;5.30;2.13;;;18.10;99.90;;;;;;5075388;28;20072;-66
2023/10/16 13:38:12;;;;;;;7.65;2.20;;;18.00;99.90;;;;;;5075303;28;20032;-66
2023/10/16 13:40:38;;;;;;;11.85;2.50;;;18.00;99.90;;;;;;5074875;28;20376;-66
2023/10/16 13:43:10;;;;;;;10.05;2.72;;;17.90;99.90;;;;;;5075264;28;20028;-66
2023/10/16 13:45:37;;;;;;;8.02;2.20;;;17.80;99.90;;;;;;5075009;28;20458;-66
2023/10/16 13:48:04;;;;;;;8.38;2.03;;;17.70;99.90;;;;;;5074973;28;20377;-66
2023/10/16 13:50:30;;;;;;;8.55;2.30;;;17.50;99.90;;;;;;5075195;28;20457;-66
2023/10/16 13:52:56;;;;;;;10.20;2.53;;;17.40;99.90;;;;;;5074678;28;20040;-65
2023/10/16 13:55:23;;;;;;;6.75;2.00;;;17.20;99.90;;;;;;5074977;28;20059;-65
2023/10/16 13:57:50;;;;;;;7.47;2.22;;;17.10;99.90;;;;;;5074704;28;20384;-66
2023/10/16 14:00:31;;;;;;;9.15;2.05;;;17.10;99.90;;;;;;5074622;28;20046;-66
2023/10/16 14:03:16;;;;;;;7.05;1.95;;;17.00;99.90;;;;;;5074443;28;20106;-67
2023/10/16 14:05:46;;;;;;;22.40;9.70;;;16.90;99.90;;;;;;5074185;28;20036;-65
2023/10/16 14:08:17;;;;;;;9.40;2.25;;;16.80;99.90;;;;;;5074951;28;20025;-66
2023/10/16 14:10:47;;;;;;;8.02;1.75;;;16.80;99.90;;;;;;5088297;28;20537;-66
2023/10/16 14:13:32;;;;;;;6.05;2.13;;;16.80;99.90;;;;;;5094942;28;20377;-67
2023/10/16 14:16:09;;;;;;;4.60;1.40;;;16.80;99.90;;;;;;5094184;28;20044;-67
2023/10/16 14:18:35;;;;;;;9.40;2.33;;;16.70;99.90;;;;;;5094799;28;20039;-66
2023/10/16 14:21:08;;;;;;;9.32;2.17;;;16.70;99.90;;;;;;5094705;28;20031;-66
2023/10/16 14:23:34;;;;;;;11.93;2.17;;;16.70;99.90;;;;;;5092713;28;20070;-66
2023/10/16 14:26:00;;;;;;;9.85;2.30;;;16.60;99.90;;;;;;5094474;28;20487;-66
2023/10/16 14:28:33;;;;;;;11.63;2.40;;;16.50;99.90;;;;;;5094605;28;20059;-65
2023/10/16 14:31:04;;;;;;;11.55;2.70;;;16.50;99.90;;;;;;5094535;28;20026;-65
2023/10/16 14:33:31;;;;;;;13.48;3.10;;;16.40;99.90;;;;;;5093088;28;20042;-66
2023/10/16 14:36:01;;;;;;;11.18;2.50;;;16.30;99.90;;;;;;5094395;28;20040;-66
2023/10/16 14:38:28;;;;;;;10.93;2.95;;;16.30;99.90;;;;;;5094207;28;20032;-65
2023/10/16 14:41:09;;;;;;;8.93;1.98;;;16.20;99.90;;;;;;5094296;28;20028;-66
2023/10/16 14:43:36;;;;;;;11.63;1.90;;;16.20;99.90;;;;;;5093778;28;20028;-66
2023/10/16 14:46:03;;;;;;;13.63;2.58;;;16.10;99.90;;;;;;5093920;28;20024;-65
2023/10/16 14:48:29;;;;;;;8.35;2.28;;;16.10;99.90;;;;;;5094349;28;20032;-65
2023/10/16 14:50:54;;;;;;;11.77;2.50;;;16.00;99.90;;;;;;5093075;28;20036;-67
2023/10/16 14:53:20;;;;;;;10.75;2.58;;;15.90;99.90;;;;;;5083092;28;20127;-65
2023/10/16 14:55:50;;;;;;;6.93;2.10;;;15.80;99.90;;;;;;5082989;28;20114;-66
2023/10/16 14:58:16;;;;;;;8.38;1.85;;;15.70;99.90;;;;;;5082591;28;20089;-65
2023/10/16 15:00:44;;;;;;;9.43;2.95;;;15.60;99.90;;;;;;5087284;28;20452;-66
2023/10/16 15:03:10;;;;;;;10.75;2.10;;;15.60;99.90;;;;;;5085405;28;20028;-65